createdAt,value
2019-05-23T00:02:54.994Z,5.87
2019-05-23T00:05:46.728Z,5.50
2019-05-23T00:08:34.120Z,5.60
2019-05-23T00:11:23.854Z,5.70
2019-05-23T00:14:20.169Z,6.23
2019-05-23T00:16:51.360Z,5.80
2019-05-23T00:19:23.504Z,6.10
2019-05-23T00:21:53.392Z,5.90
2019-05-23T00:24:23.491Z,5.63
2019-05-23T00:26:52.514Z,5.73
2019-05-23T00:29:21.596Z,5.53
2019-05-23T00:32:06.354Z,5.90
2019-05-23T00:34:36.961Z,5.73
2019-05-23T00:37:08.583Z,5.70
2019-05-23T00:39:37.844Z,5.47
2019-05-23T00:42:07.128Z,5.80
2019-05-23T00:44:36.595Z,5.30
2019-05-23T00:47:07.343Z,5.97
2019-05-23T00:49:37.108Z,6.40
2019-05-23T00:52:07.795Z,5.70
2019-05-23T00:54:37.538Z,5.93
2019-05-23T00:57:07.177Z,6.77
2019-05-23T00:59:36.324Z,6.20
2019-05-23T01:02:04.780Z,6.50
2019-05-23T01:04:33.905Z,7.20
2019-05-23T01:07:03.414Z,7.03
2019-05-23T01:09:32.934Z,7.17
2019-05-23T01:12:03.510Z,7.00
2019-05-23T01:14:32.567Z,6.83
2019-05-23T01:17:03.280Z,7.23
2019-05-23T01:19:32.410Z,7.30
2019-05-23T01:22:04.331Z,6.30
2019-05-23T01:24:39.294Z,6.97
2019-05-23T01:27:08.358Z,6.83
2019-05-23T01:29:39.055Z,6.73
2019-05-23T01:32:15.974Z,6.20
2019-05-23T01:34:44.771Z,6.50
2019-05-23T01:37:15.300Z,7.07
2019-05-23T01:39:44.107Z,7.50
2019-05-23T01:42:12.879Z,8.53
2019-05-23T01:44:41.863Z,8.60
2019-05-23T01:47:15.541Z,8.77
2019-05-23T01:49:44.674Z,8.50
2019-05-23T01:52:14.451Z,9.27
2019-05-23T01:54:43.526Z,9.13
2019-05-23T01:57:12.472Z,9.00
2019-05-23T01:59:41.504Z,10.13
2019-05-23T02:02:12.963Z,10.20
2019-05-23T02:04:41.794Z,10.70
2019-05-23T02:07:10.764Z,10.07
2019-05-23T02:09:40.301Z,9.47
2019-05-23T02:12:11.325Z,8.30
2019-05-23T02:14:43.707Z,7.90
2019-05-23T02:17:13.698Z,7.30
2019-05-23T02:19:43.000Z,7.40
2019-05-23T02:22:12.544Z,6.90
2019-05-23T02:24:41.838Z,6.70
2019-05-23T02:27:11.341Z,7.03
2019-05-23T02:29:41.360Z,6.60
2019-05-23T02:32:10.743Z,6.80
2019-05-23T02:34:40.047Z,7.37
2019-05-23T02:37:17.441Z,7.87
2019-05-23T02:39:59.934Z,8.70
2019-05-23T02:42:34.064Z,9.10
2019-05-23T02:45:04.796Z,9.30
2019-05-23T02:47:36.949Z,9.20
2019-05-23T02:50:06.599Z,9.70
2019-05-23T02:52:41.771Z,9.90
2019-05-23T02:55:27.406Z,8.83
2019-05-23T02:58:01.979Z,9.37
2019-05-23T03:00:55.330Z,10.67
2019-05-23T03:03:27.319Z,10.30
2019-05-23T03:05:57.092Z,9.47
2019-05-23T03:08:26.349Z,9.80
2019-05-23T03:11:18.454Z,11.70
2019-05-23T03:13:47.479Z,10.63
2019-05-23T03:16:18.516Z,10.90
2019-05-23T03:18:52.526Z,10.93
2019-05-23T03:21:21.131Z,9.40
2019-05-23T03:23:50.080Z,8.37
2019-05-23T03:26:53.370Z,7.63
2019-05-23T03:29:22.183Z,7.30
2019-05-23T03:31:55.896Z,7.43
2019-05-23T03:34:29.077Z,7.73
2019-05-23T03:37:00.510Z,8.40
2019-05-23T03:39:28.938Z,7.73
2019-05-23T03:41:57.707Z,7.57
2019-05-23T03:44:28.454Z,8.50
2019-05-23T03:46:59.038Z,8.73
2019-05-23T03:49:29.905Z,8.67
2019-05-23T03:51:58.396Z,8.37
2019-05-23T03:54:29.196Z,8.70
2019-05-23T03:56:59.081Z,7.87
2019-05-23T03:59:28.365Z,8.07
2019-05-23T04:01:56.721Z,7.90
2019-05-23T04:04:27.048Z,8.23
2019-05-23T04:06:58.674Z,8.17
2019-05-23T04:09:27.882Z,8.70
2019-05-23T04:11:57.702Z,8.23
2019-05-23T04:14:26.178Z,9.03
2019-05-23T04:16:55.080Z,9.20
2019-05-23T04:19:23.850Z,9.27
2019-05-23T04:21:53.338Z,8.83
2019-05-23T04:24:22.471Z,8.87
2019-05-23T04:26:51.052Z,9.23
2019-05-23T04:29:19.962Z,9.57
2019-05-23T04:32:06.103Z,8.97
2019-05-23T04:34:19.263Z,8.63
2019-05-23T04:36:48.349Z,8.30
2019-05-23T04:39:17.292Z,8.07
2019-05-23T04:41:46.010Z,8.20
2019-05-23T04:44:16.110Z,8.97
2019-05-23T04:46:44.647Z,7.87
2019-05-23T04:49:13.316Z,8.07
2019-05-23T04:51:42.501Z,8.40
2019-05-23T04:54:11.475Z,9.40
2019-05-23T04:56:40.587Z,8.80
2019-05-23T04:59:09.480Z,11.30
2019-05-23T05:01:38.653Z,11.27
2019-05-23T05:04:09.388Z,8.07
2019-05-23T05:06:38.643Z,7.83
2019-05-23T05:09:09.953Z,8.10
2019-05-23T05:11:40.293Z,7.33
2019-05-23T05:14:08.668Z,8.00
2019-05-23T05:16:37.539Z,8.17
2019-05-23T05:19:06.038Z,8.60
2019-05-23T05:21:35.202Z,8.80
2019-05-23T05:24:03.895Z,9.23
2019-05-23T05:26:33.679Z,8.87
2019-05-23T05:29:03.065Z,8.63
2019-05-23T05:31:31.827Z,9.00
2019-05-23T05:34:00.913Z,9.23
2019-05-23T05:36:29.605Z,9.10
2019-05-23T05:38:58.691Z,10.37
2019-05-23T05:41:28.067Z,11.10
2019-05-23T05:43:56.778Z,12.33
2019-05-23T05:46:25.990Z,12.10
2019-05-23T05:48:55.594Z,12.60
2019-05-23T05:51:24.074Z,12.67
2019-05-23T05:53:52.558Z,12.60
2019-05-23T05:56:21.361Z,11.77
2019-05-23T05:58:50.331Z,11.63
2019-05-23T06:01:32.731Z,12.37
2019-05-23T06:03:50.171Z,11.83
2019-05-23T06:06:26.822Z,12.10
2019-05-23T06:08:58.609Z,13.60
2019-05-23T06:11:26.962Z,14.03
2019-05-23T06:13:55.506Z,13.07
2019-05-23T06:16:24.359Z,14.30
2019-05-23T06:18:52.754Z,14.60
2019-05-23T06:21:23.138Z,13.90
2019-05-23T06:23:51.853Z,13.97
2019-05-23T06:26:20.598Z,13.10
2019-05-23T06:28:49.466Z,12.77
2019-05-23T06:31:19.822Z,14.57
2019-05-23T06:33:48.633Z,13.90
2019-05-23T06:36:17.190Z,12.93
2019-05-23T06:38:46.401Z,12.50
2019-05-23T06:41:15.800Z,12.63
2019-05-23T06:43:44.591Z,11.83
2019-05-23T06:46:13.287Z,11.90
2019-05-23T06:48:45.604Z,11.60
2019-05-23T06:51:12.484Z,11.17
2019-05-23T06:53:41.404Z,12.03
2019-05-23T06:56:11.490Z,11.33
2019-05-23T06:58:40.821Z,10.37
2019-05-23T07:01:09.323Z,10.90
2019-05-23T07:03:43.214Z,10.90
2019-05-23T07:06:09.941Z,10.00
2019-05-23T07:08:38.677Z,10.27
2019-05-23T07:11:07.292Z,11.07
2019-05-23T07:13:36.650Z,9.80
2019-05-23T07:16:05.703Z,9.40
2019-05-23T07:18:34.493Z,9.33
2019-05-23T07:21:03.029Z,9.87
2019-05-23T07:23:31.749Z,9.23
2019-05-23T07:26:00.637Z,8.43
2019-05-23T07:28:29.675Z,9.10
2019-05-23T07:30:58.583Z,9.77
2019-05-23T07:33:27.507Z,10.40
2019-05-23T07:35:56.298Z,10.10
2019-05-23T07:38:24.880Z,10.57
2019-05-23T07:40:53.854Z,10.10
2019-05-23T07:43:23.294Z,9.83
2019-05-23T07:45:55.143Z,9.93
2019-05-23T07:48:24.421Z,10.17
2019-05-23T07:50:54.395Z,10.70
2019-05-23T07:53:45.254Z,11.10
2019-05-23T07:56:16.753Z,10.73
2019-05-23T07:58:45.598Z,10.03
2019-05-23T08:01:16.637Z,11.50
2019-05-23T08:03:48.356Z,10.47
2019-05-23T08:06:16.915Z,11.53
2019-05-23T08:08:45.770Z,11.47
2019-05-23T08:11:15.480Z,10.40
2019-05-23T08:13:43.878Z,10.53
2019-05-23T08:16:12.738Z,10.50
2019-05-23T08:18:41.827Z,8.97
2019-05-23T08:21:10.358Z,9.83
2019-05-23T08:23:38.904Z,10.60
2019-05-23T08:26:07.812Z,10.07
2019-05-23T08:28:36.545Z,9.80
2019-05-23T08:31:06.187Z,10.93
2019-05-23T08:33:35.371Z,9.80
2019-05-23T08:36:04.720Z,11.20
2019-05-23T08:38:33.270Z,11.30
2019-05-23T08:41:02.780Z,10.80
2019-05-23T08:43:31.991Z,10.20
2019-05-23T08:46:00.595Z,9.67
2019-05-23T08:48:29.144Z,9.73
2019-05-23T08:50:57.750Z,8.60
2019-05-23T08:53:28.931Z,9.23
2019-05-23T08:55:58.198Z,9.40
2019-05-23T08:58:27.260Z,9.07
2019-05-23T09:00:57.097Z,9.17
2019-05-23T09:03:26.292Z,8.80
2019-05-23T09:05:55.646Z,8.93
2019-05-23T09:08:26.103Z,10.13
2019-05-23T09:10:56.218Z,10.00
2019-05-23T09:13:25.126Z,8.57
2019-05-23T09:15:53.737Z,9.17
2019-05-23T09:18:22.967Z,9.77
2019-05-23T09:20:51.811Z,8.00
2019-05-23T09:23:20.591Z,8.53
2019-05-23T09:25:49.374Z,8.40
2019-05-23T09:28:18.177Z,8.47
2019-05-23T09:30:46.767Z,9.10
2019-05-23T09:33:15.495Z,8.57
2019-05-23T09:35:44.037Z,8.60
2019-05-23T09:38:12.819Z,10.03
2019-05-23T09:40:41.486Z,9.87
2019-05-23T09:43:10.191Z,8.33
2019-05-23T09:45:40.923Z,10.07
2019-05-23T09:48:09.772Z,9.53
2019-05-23T09:50:38.574Z,9.73
2019-05-23T09:53:07.215Z,10.17
2019-05-23T09:55:36.155Z,8.47
2019-05-23T09:58:04.943Z,8.90
2019-05-23T10:00:35.547Z,9.70
2019-05-23T10:03:06.039Z,9.43
2019-05-23T10:05:42.519Z,8.70
2019-05-23T10:08:05.034Z,6.63
2019-05-23T10:10:33.879Z,6.47
2019-05-23T10:13:02.409Z,6.50
2019-05-23T10:15:58.604Z,5.33
2019-05-23T10:18:27.407Z,5.80
2019-05-23T10:20:55.787Z,6.03
2019-05-23T10:23:24.592Z,6.70
2019-05-23T10:25:53.226Z,6.43
2019-05-23T10:28:21.914Z,5.70
2019-05-23T10:30:50.982Z,5.77
2019-05-23T10:33:19.736Z,5.00
2019-05-23T10:35:59.733Z,5.70
2019-05-23T10:38:18.338Z,5.80
2019-05-23T10:40:46.829Z,6.17
2019-05-23T10:43:15.699Z,4.93
2019-05-23T10:45:44.511Z,5.60
2019-05-23T10:48:13.269Z,6.10
2019-05-23T10:50:45.072Z,5.60
2019-05-23T10:53:12.620Z,5.00
2019-05-23T10:55:41.276Z,5.27
2019-05-23T10:58:10.237Z,5.10
2019-05-23T11:00:38.794Z,5.40
2019-05-23T11:03:07.560Z,5.47
2019-05-23T11:05:36.014Z,4.87
2019-05-23T11:08:06.175Z,5.40
2019-05-23T11:10:35.253Z,5.80
2019-05-23T11:13:04.843Z,5.20
2019-05-23T11:15:33.762Z,4.70
2019-05-23T11:18:04.306Z,5.00
2019-05-23T11:20:35.968Z,5.10
2019-05-23T11:23:04.912Z,4.70
2019-05-23T11:25:36.018Z,4.90
2019-05-23T11:28:04.744Z,4.10
2019-05-23T11:30:41.303Z,5.10
2019-05-23T11:33:11.791Z,4.17
2019-05-23T11:35:41.261Z,4.53
2019-05-23T11:38:10.513Z,4.47
2019-05-23T11:40:39.311Z,4.60
2019-05-23T11:43:07.825Z,4.20
2019-05-23T11:45:46.106Z,4.70
2019-05-23T11:48:16.033Z,4.30
2019-05-23T11:50:43.775Z,3.93
2019-05-23T11:53:12.182Z,3.90
2019-05-23T11:55:40.984Z,3.90
2019-05-23T11:58:09.767Z,4.00
2019-05-23T12:01:20.450Z,4.30
2019-05-23T12:03:46.206Z,3.80
2019-05-23T12:06:16.155Z,4.50
2019-05-23T12:08:44.941Z,4.07
2019-05-23T12:11:14.433Z,3.93
2019-05-23T12:13:44.363Z,4.30
2019-05-23T12:16:13.257Z,4.80
2019-05-23T12:18:42.134Z,5.07
2019-05-23T12:21:11.156Z,4.83
2019-05-23T12:23:39.609Z,4.43
2019-05-23T12:26:08.097Z,4.40
2019-05-23T12:28:37.028Z,4.53
2019-05-23T12:31:06.177Z,4.30
2019-05-23T12:33:35.150Z,4.17
2019-05-23T12:36:05.869Z,4.90
2019-05-23T12:38:34.164Z,4.57
2019-05-23T12:41:03.172Z,4.90
2019-05-23T12:43:32.515Z,4.60
2019-05-23T12:46:01.178Z,5.17
2019-05-23T12:48:38.022Z,3.97
2019-05-23T12:51:07.142Z,4.33
2019-05-23T12:53:36.101Z,5.00
2019-05-23T12:56:05.571Z,4.83
2019-05-23T12:58:34.603Z,4.67
2019-05-23T13:01:05.038Z,4.50
2019-05-23T13:03:33.844Z,5.50
2019-05-23T13:06:03.229Z,4.60
2019-05-23T13:08:32.664Z,4.73
2019-05-23T13:11:01.365Z,4.60
2019-05-23T13:13:30.396Z,4.73
2019-05-23T13:15:59.330Z,4.73
2019-05-23T13:18:27.987Z,4.13
2019-05-23T13:20:59.554Z,4.60
2019-05-23T13:23:27.737Z,4.97
2019-05-23T13:25:56.616Z,4.43
2019-05-23T13:28:25.193Z,5.60
2019-05-23T13:30:53.801Z,5.50
2019-05-23T13:33:22.893Z,4.90
2019-05-23T13:35:51.448Z,5.20
2019-05-23T13:38:20.587Z,5.00
2019-05-23T13:40:49.218Z,5.33
2019-05-23T13:43:17.714Z,6.00
2019-05-23T13:45:46.324Z,6.70
2019-05-23T13:48:16.122Z,6.90
2019-05-23T13:50:44.988Z,6.30
2019-05-23T13:53:13.393Z,5.70
2019-05-23T13:55:42.194Z,5.03
2019-05-23T13:58:10.854Z,4.93
2019-05-23T14:00:39.591Z,5.40
2019-05-23T14:03:08.297Z,5.10
2019-05-23T14:05:36.908Z,4.77
2019-05-23T14:08:12.211Z,4.80
2019-05-23T14:10:36.095Z,4.70
2019-05-23T14:13:04.824Z,4.90
2019-05-23T14:15:39.020Z,4.90
2019-05-23T14:18:08.018Z,4.53
2019-05-23T14:20:36.491Z,4.70
2019-05-23T14:23:17.183Z,5.10
2019-05-23T14:25:46.025Z,3.97
2019-05-23T14:28:15.428Z,5.10
2019-05-23T14:31:15.123Z,5.00
2019-05-23T14:33:50.284Z,4.93
2019-05-23T14:36:38.625Z,5.70
2019-05-23T14:39:15.594Z,6.00
2019-05-23T14:41:51.778Z,5.10
2019-05-23T14:44:20.579Z,5.47
2019-05-23T14:47:09.108Z,5.50
2019-05-23T14:49:43.637Z,5.10
2019-05-23T14:52:20.662Z,5.50
2019-05-23T14:54:55.575Z,6.40
2019-05-23T14:57:24.095Z,9.23
2019-05-23T14:59:53.559Z,9.03
2019-05-23T15:02:22.240Z,9.33
2019-05-23T15:04:51.134Z,10.17
2019-05-23T15:07:20.536Z,9.67
2019-05-23T15:09:49.221Z,7.20
2019-05-23T15:12:18.141Z,6.60
2019-05-23T15:14:46.778Z,6.50
2019-05-23T15:17:15.745Z,6.40
2019-05-23T15:19:45.562Z,6.60
2019-05-23T15:22:16.527Z,6.20
2019-05-23T15:24:45.027Z,5.70
2019-05-23T15:27:13.706Z,5.33
2019-05-23T15:29:42.694Z,5.40
2019-05-23T15:32:11.339Z,5.20
2019-05-23T15:34:39.649Z,3.73
2019-05-23T15:37:08.019Z,3.93
2019-05-23T15:39:36.728Z,3.87
2019-05-23T15:42:06.132Z,3.67
2019-05-23T15:44:34.435Z,3.57
2019-05-23T15:47:03.204Z,3.60
2019-05-23T15:49:31.963Z,3.67
2019-05-23T15:52:18.576Z,3.70
2019-05-23T15:54:57.407Z,3.70
2019-05-23T15:57:51.483Z,3.80
2019-05-23T16:00:41.847Z,4.30
2019-05-23T16:03:26.124Z,4.43
2019-05-23T16:05:56.039Z,4.93
2019-05-23T16:08:24.623Z,4.50
2019-05-23T16:10:53.524Z,5.00
2019-05-23T16:13:22.377Z,4.50
2019-05-23T16:15:51.079Z,5.67
2019-05-23T16:18:21.045Z,5.13
2019-05-23T16:20:50.712Z,5.20
2019-05-23T16:23:19.478Z,5.67
2019-05-23T16:25:50.756Z,4.97
2019-05-23T16:28:19.444Z,6.77
2019-05-23T16:30:48.478Z,4.97
2019-05-23T16:33:17.832Z,4.70
2019-05-23T16:35:46.302Z,4.70
2019-05-23T16:38:15.244Z,4.63
2019-05-23T16:40:44.625Z,4.77
2019-05-23T16:43:13.094Z,4.90
2019-05-23T16:45:42.206Z,4.00
2019-05-23T16:48:13.330Z,4.90
2019-05-23T16:50:42.041Z,4.27
2019-05-23T16:53:13.373Z,5.17
2019-05-23T16:55:51.637Z,4.73
2019-05-23T16:58:34.239Z,4.50
2019-05-23T17:01:30.233Z,4.30
2019-05-23T17:04:10.355Z,4.93
2019-05-23T17:06:55.816Z,5.33
2019-05-23T17:10:06.138Z,5.80
2019-05-23T17:12:52.904Z,5.77
2019-05-23T17:15:48.054Z,5.67
2019-05-23T17:18:36.941Z,5.33
2019-05-23T17:21:13.749Z,5.40
2019-05-23T17:24:02.187Z,5.33
2019-05-23T17:26:51.195Z,5.57
2019-05-23T17:30:08.628Z,6.40
2019-05-23T17:32:38.903Z,4.83
2019-05-23T17:35:09.390Z,5.30
2019-05-23T17:37:46.777Z,4.73
2019-05-23T17:40:24.911Z,4.87
2019-05-23T17:42:48.737Z,5.03
2019-05-23T17:45:19.949Z,4.80
2019-05-23T17:47:49.467Z,5.33
2019-05-23T17:50:18.339Z,5.13
2019-05-23T17:52:47.526Z,4.93
2019-05-23T17:55:17.061Z,4.17
2019-05-23T17:57:45.939Z,3.97
2019-05-23T18:00:17.558Z,3.80
2019-05-23T18:02:46.372Z,3.77
2019-05-23T18:05:15.708Z,3.50
2019-05-23T18:07:44.885Z,3.70
2019-05-23T18:10:13.976Z,9.77
2019-05-23T18:12:42.954Z,3.00
2019-05-23T18:15:12.965Z,3.33
2019-05-23T18:17:41.656Z,3.77
2019-05-23T18:20:11.473Z,3.30
2019-05-23T18:22:40.079Z,3.70
2019-05-23T18:25:10.248Z,3.60
2019-05-23T18:27:39.620Z,3.60
2019-05-23T18:30:12.042Z,3.53
2019-05-23T18:32:41.088Z,4.27
2019-05-23T18:35:11.678Z,5.00
2019-05-23T18:37:40.906Z,3.90
2019-05-23T18:40:11.005Z,4.30
2019-05-23T18:42:40.773Z,3.90
2019-05-23T18:45:09.799Z,4.30
2019-05-23T18:47:40.583Z,4.90
2019-05-23T18:50:10.870Z,3.80
2019-05-23T18:52:39.955Z,4.10
2019-05-23T18:55:08.967Z,3.60
2019-05-23T18:57:37.427Z,5.13
2019-05-23T19:00:06.908Z,5.27
2019-05-23T19:02:37.471Z,4.50
2019-05-23T19:05:06.642Z,4.30
2019-05-23T19:07:35.602Z,4.20
2019-05-23T19:10:06.053Z,3.53
2019-05-23T19:12:34.682Z,4.07
2019-05-23T19:15:03.710Z,7.23
2019-05-23T19:17:32.246Z,11.97
2019-05-23T19:20:00.733Z,9.33
2019-05-23T19:22:29.627Z,7.23
2019-05-23T19:24:58.701Z,7.27
2019-05-23T19:27:27.403Z,5.63
2019-05-23T19:29:56.198Z,5.47
2019-05-23T19:32:25.479Z,4.50
2019-05-23T19:34:54.430Z,4.53
2019-05-23T19:37:23.454Z,3.70
2019-05-23T19:39:52.247Z,3.40
2019-05-23T19:42:21.213Z,3.10
2019-05-23T19:44:49.577Z,3.07
2019-05-23T19:47:18.318Z,3.20
2019-05-23T19:49:47.005Z,3.03
2019-05-23T19:52:15.780Z,3.00
2019-05-23T19:54:44.559Z,3.10
2019-05-23T19:57:13.265Z,2.80
2019-05-23T19:59:41.950Z,2.70
2019-05-23T20:02:42.201Z,2.50
2019-05-23T20:05:17.143Z,2.63
2019-05-23T20:07:45.879Z,2.60
2019-05-23T20:10:15.401Z,2.50
2019-05-23T20:12:44.432Z,2.60
2019-05-23T20:15:13.180Z,2.67
2019-05-23T20:17:41.557Z,2.30
2019-05-23T20:20:10.783Z,2.67
2019-05-23T20:22:40.668Z,2.60
2019-05-23T20:25:10.457Z,2.67
2019-05-23T20:27:38.953Z,3.00
2019-05-23T20:30:10.701Z,2.97
2019-05-23T20:32:39.480Z,2.80
2019-05-23T20:35:08.174Z,2.83
2019-05-23T20:37:38.069Z,3.07
2019-05-23T20:40:06.943Z,2.90
2019-05-23T20:42:36.126Z,3.17
2019-05-23T20:45:04.969Z,3.00
2019-05-23T20:47:35.670Z,3.10
2019-05-23T20:50:05.034Z,3.03
2019-05-23T20:52:33.698Z,2.90
2019-05-23T20:55:02.357Z,3.00
2019-05-23T20:57:31.872Z,2.53
2019-05-23T21:00:00.866Z,2.97
2019-05-23T21:02:29.654Z,3.50
2019-05-23T21:04:58.356Z,3.40
2019-05-23T21:07:28.454Z,3.40
2019-05-23T21:09:57.140Z,4.03
2019-05-23T21:12:29.885Z,4.20
2019-05-23T21:14:55.940Z,4.40
2019-05-23T21:17:25.070Z,4.33
2019-05-23T21:19:53.536Z,5.07
2019-05-23T21:22:22.198Z,4.67
2019-05-23T21:24:50.914Z,4.40
2019-05-23T21:27:19.376Z,4.00
2019-05-23T21:29:47.838Z,4.17
2019-05-23T21:32:16.480Z,4.57
2019-05-23T21:34:44.923Z,4.30
2019-05-23T21:37:13.498Z,4.07
2019-05-23T21:39:42.216Z,4.00
2019-05-23T21:42:10.861Z,3.40
2019-05-23T21:44:39.552Z,3.43
2019-05-23T21:47:08.757Z,3.70
2019-05-23T21:49:37.534Z,3.40
2019-05-23T21:52:06.754Z,3.60
2019-05-23T21:54:35.352Z,3.80
2019-05-23T21:57:04.221Z,3.33
2019-05-23T21:59:32.887Z,3.67
2019-05-23T22:02:09.463Z,3.77
2019-05-23T22:04:57.706Z,3.60
2019-05-23T22:07:26.422Z,3.30
2019-05-23T22:09:54.872Z,3.40
2019-05-23T22:12:23.558Z,2.93
2019-05-23T22:14:52.571Z,3.30
2019-05-23T22:17:23.247Z,3.83
2019-05-23T22:19:52.326Z,3.47
2019-05-23T22:22:20.782Z,3.60
2019-05-23T22:24:49.452Z,3.90
2019-05-23T22:27:19.673Z,3.90
2019-05-23T22:29:48.039Z,4.00
2019-05-23T22:32:18.031Z,3.50
2019-05-23T22:35:04.152Z,3.90
2019-05-23T22:37:32.949Z,3.67
2019-05-23T22:40:02.240Z,3.93
2019-05-23T22:42:31.465Z,4.03
2019-05-23T22:44:59.906Z,4.23
2019-05-23T22:47:28.607Z,4.37
2019-05-23T22:49:57.422Z,4.60
2019-05-23T22:52:26.078Z,4.30
2019-05-23T22:54:54.367Z,4.53
2019-05-23T22:57:22.875Z,5.20
2019-05-23T22:59:51.224Z,4.90
2019-05-23T23:02:19.901Z,4.77
2019-05-23T23:04:50.562Z,5.00
2019-05-23T23:07:19.623Z,5.47
2019-05-23T23:09:50.000Z,5.43
2019-05-23T23:12:18.707Z,6.27
2019-05-23T23:14:47.375Z,6.80
2019-05-23T23:17:17.250Z,7.13
2019-05-23T23:19:45.924Z,7.33
2019-05-23T23:22:14.610Z,7.20
2019-05-23T23:24:43.314Z,7.10
2019-05-23T23:27:12.190Z,7.10
2019-05-23T23:29:40.574Z,7.10
2019-05-23T23:32:09.730Z,7.40
2019-05-23T23:34:38.538Z,7.17
2019-05-23T23:37:07.138Z,7.50
2019-05-23T23:39:35.854Z,8.20
2019-05-23T23:42:04.925Z,7.87
2019-05-23T23:44:35.439Z,8.13
2019-05-23T23:47:22.801Z,8.57
2019-05-23T23:50:09.632Z,7.47
2019-05-23T23:52:55.902Z,7.03
2019-05-23T23:55:42.813Z,7.57
2019-05-23T23:58:11.175Z,7.80
